Time;durP1;ratioP1;P1;durP2;ratioP2;P2;SDS_P1;SDS_P2;PMS_P1;PMS_P2;Temp;Humidity;BMP_temperature;BMP_pressure;BME280_temperature;BME280_humidity;BME280_pressure;Samples;Min_cycle;Max_cycle;Signal;HPM_P1;HPM_P2
2022/11/09 00:01:37;;;;;;;54.97;33.28;;;;;;;10.57;91.83;101356.44;4968566;28;20197;-73
2022/11/09 00:04:04;;;;;;;59.25;33.67;;;;;;;10.53;91.74;101356.38;4967583;28;20043;-73
2022/11/09 00:06:31;;;;;;;49.55;32.97;;;;;;;9.64;91.72;101218.56;4967335;28;20047;-74
2022/11/09 00:08:57;;;;;;;43.88;33.30;;;;;;;10.38;91.80;101359.66;4970357;28;20216;-75
2022/11/09 00:11:23;;;;;;;60.22;32.03;;;;;;;10.40;91.74;101370.19;4970951;28;20154;-73
2022/11/09 00:13:49;;;;;;;52.85;30.40;;;;;;;9.70;91.69;101250.13;4972560;28;20575;-73
2022/11/09 00:16:19;;;;;;;48.53;30.73;;;;;;;10.23;92.25;101368.13;4974787;28;20046;-74
2022/11/09 00:18:48;;;;;;;54.92;34.95;;;;;;;9.94;93.15;101344.88;4968450;28;20047;-74
2022/11/09 00:21:19;;;;;;;51.25;35.50;;;;;;;9.90;93.91;101361.44;4958809;28;20030;-74
2022/11/09 00:23:45;;;;;;;52.90;37.15;;;;;;;9.01;95.93;101231.41;4971073;28;20062;-74
2022/11/09 00:26:12;;;;;;;63.40;37.13;;;;;;;9.03;95.25;101207.84;4970986;28;20081;-73
2022/11/09 00:28:38;;;;;;;62.03;37.30;;;;;;;9.66;96.20;101367.09;4970415;28;20117;-73
2022/11/09 00:31:07;;;;;;;68.05;38.10;;;;;;;8.62;97.13;101194.84;4956382;28;20434;-73
2022/11/09 00:33:33;;;;;;;54.00;39.33;;;;;;;8.95;97.44;101272.28;4969646;28;20097;-73
2022/11/09 00:36:06;;;;;;;61.35;40.03;;;;;;;9.47;97.81;101346.63;4969400;28;20483;-73
2022/11/09 00:38:32;;;;;;;60.93;42.93;;;;;;;9.32;97.98;101365.56;4967849;28;20495;-73
2022/11/09 00:41:02;;;;;;;63.75;41.88;;;;;;;8.96;99.09;101329.88;4970180;28;20133;-73
2022/11/09 00:43:28;;;;;;;59.90;40.05;;;;;;;8.31;99.98;101233.41;4964775;28;20093;-73
2022/11/09 00:45:53;;;;;;;62.00;39.13;;;;;;;8.97;100.00;101347.38;4970287;28;20466;-73
2022/11/09 00:48:19;;;;;;;61.97;42.90;;;;;;;8.99;100.00;101356.13;4954908;28;20042;-73
2022/11/09 00:50:55;;;;;;;64.65;40.03;;;;;;;8.42;100.00;101250.22;4959866;28;20033;-73
2022/11/09 00:53:22;;;;;;;59.72;40.80;;;;;;;8.79;100.00;101349.56;4967163;28;20058;-74
2022/11/09 00:55:54;;;;;;;66.95;44.10;;;;;;;8.77;100.00;101359.13;4969273;28;20059;-74
2022/11/09 00:58:20;;;;;;;64.97;42.55;;;;;;;8.47;100.00;101310.47;4962765;28;20108;-74
2022/11/09 01:00:45;;;;;;;65.47;43.80;;;;;;;7.85;100.00;101198.34;4969580;28;20038;-74
2022/11/09 01:03:11;;;;;;;66.75;45.50;;;;;;;8.65;100.00;101358.00;4970137;28;20046;-73
2022/11/09 01:05:40;;;;;;;59.00;39.65;;;;;;;8.66;100.00;101371.94;4970763;28;20034;-74
2022/11/09 01:08:05;;;;;;;62.38;44.22;;;;;;;8.53;100.00;101362.94;4970224;28;20070;-73
2022/11/09 01:10:31;;;;;;;60.15;42.35;;;;;;;7.87;100.00;101242.81;4969266;28;20089;-74
2022/11/09 01:12:57;;;;;;;66.68;46.75;;;;;;;8.52;100.00;101358.56;4969094;28;20049;-74
2022/11/09 01:15:22;;;;;;;61.63;42.03;;;;;;;7.66;100.00;101228.38;4970087;28;20450;-74
2022/11/09 01:17:48;;;;;;;66.55;39.83;;;;;;;8.58;100.00;101368.28;4970247;28;20051;-74
2022/11/09 01:20:15;;;;;;;71.25;41.20;;;;;;;8.04;100.00;101229.28;4967669;28;20047;-72
2022/11/09 01:22:40;;;;;;;58.95;40.35;;;;;;;8.43;99.94;101300.81;4960056;28;20055;-73
2022/11/09 01:25:07;;;;;;;70.72;42.20;;;;;;;8.09;100.00;101273.81;4969641;28;20569;-72
2022/11/09 01:27:32;;;;;;;61.25;40.53;;;;;;;8.60;100.00;101350.91;4952853;28;20039;-73
2022/11/09 01:29:58;;;;;;;56.22;40.75;;;;;;;8.48;100.00;101382.88;4966496;28;20066;-73
2022/11/09 01:32:23;;;;;;;68.95;40.50;;;;;;;8.37;100.00;101361.66;4969577;28;20059;-73
2022/11/09 01:34:49;;;;;;;59.58;40.47;;;;;;;7.49;100.00;101212.28;4969624;28;20047;-73
2022/11/09 01:37:14;;;;;;;62.20;39.63;;;;;;;8.43;100.00;101334.81;4969559;28;20047;-73
2022/11/09 01:39:40;;;;;;;78.30;40.05;;;;;;;7.73;100.00;101230.28;4969358;28;20483;-73
2022/11/09 01:42:05;;;;;;;64.90;41.22;;;;;;;7.60;100.00;101241.25;4970211;28;20371;-73
2022/11/09 01:44:34;;;;;;;60.20;37.05;;;;;;;7.26;100.00;101211.69;4966406;28;20042;-73
2022/11/09 01:47:13;;;;;;;64.28;45.55;;;;;;;7.93;100.00;101350.97;4969303;28;20129;-73
2022/11/09 01:49:42;;;;;;;62.75;42.58;;;;;;;8.19;100.00;101375.19;4968811;28;20043;-74
2022/11/09 01:52:21;;;;;;;61.15;41.60;;;;;;;8.31;100.00;101366.75;4969240;28;20039;-73
2022/11/09 01:54:51;;;;;;;72.22;43.58;;;;;;;7.55;100.00;101225.47;4969375;28;20038;-73
2022/11/09 01:57:23;;;;;;;65.72;44.25;;;;;;;8.04;100.00;101276.31;4968654;28;20069;-73
2022/11/09 02:00:01;;;;;;;65.63;41.28;;;;;;;8.10;100.00;101348.81;4968767;28;20045;-74
2022/11/09 02:02:27;;;;;;;87.13;44.10;;;;;;;7.32;100.00;101230.09;4955929;28;20062;-72
2022/11/09 02:05:04;;;;;;;60.38;39.80;;;;;;;8.09;100.00;101362.69;4950915;28;20086;-74
2022/11/09 02:07:30;;;;;;;63.15;43.80;;;;;;;7.98;100.00;101367.66;4968192;28;20059;-72
2022/11/09 02:10:12;;;;;;;77.30;46.78;;;;;;;7.90;100.00;101339.56;4967848;28;20059;-73
2022/11/09 02:12:39;;;;;;;57.92;42.53;;;;;;;8.04;100.00;101359.09;4968953;28;20051;-74
2022/11/09 02:15:09;;;;;;;61.40;40.92;;;;;;;7.50;100.00;101252.31;4968329;28;20035;-75
2022/11/09 02:17:35;;;;;;;62.67;43.42;;;;;;;8.17;100.00;101337.66;4968819;28;20065;-74
2022/11/09 02:20:02;;;;;;;70.13;41.88;;;;;;;8.42;100.00;101370.53;4968267;28;20042;-73
2022/11/09 02:22:28;;;;;;;55.60;40.58;;;;;;;8.31;100.00;101365.84;4968470;28;20050;-73
2022/11/09 02:24:53;;;;;;;71.20;44.70;;;;;;;7.49;100.00;101224.44;4969093;28;20554;-73
2022/11/09 02:27:20;;;;;;;85.20;62.33;;;;;;;8.16;100.00;101341.09;4976177;28;20045;-73
2022/11/09 02:29:47;;;;;;;79.32;60.20;;;;;;;7.74;100.00;101241.59;4950252;28;20054;-73
2022/11/09 02:32:23;;;;;;;94.82;66.43;;;;;;;8.42;100.00;101356.56;4967867;28;20066;-74
2022/11/09 02:34:48;;;;;;;95.28;66.63;;;;;;;7.58;100.00;101212.47;4967557;28;20093;-72
2022/11/09 02:37:27;;;;;;;90.35;61.63;;;;;;;8.29;100.00;101380.59;4967732;28;20050;-72
2022/11/09 02:39:56;;;;;;;85.10;63.10;;;;;;;7.91;100.00;101344.81;4967753;28;20134;-72
2022/11/09 02:42:22;;;;;;;102.88;70.45;;;;;;;8.17;100.00;101371.63;4968418;28;20035;-74
2022/11/09 02:44:53;;;;;;;112.93;74.82;;;;;;;7.38;100.00;101230.25;4965020;28;20153;-72
2022/11/09 02:47:18;;;;;;;109.60;70.07;;;;;;;7.93;100.00;101365.75;4967405;28;20092;-73
2022/11/09 02:49:43;;;;;;;95.78;75.05;;;;;;;6.85;100.00;101174.91;4968061;28;20483;-73
2022/11/09 02:52:09;;;;;;;96.32;67.28;;;;;;;8.02;100.00;101356.41;4967843;28;20065;-72
2022/11/09 02:54:34;;;;;;;96.00;67.07;;;;;;;7.79;100.00;101347.09;4968246;28;20039;-72
2022/11/09 02:57:00;;;;;;;86.93;65.75;;;;;;;8.21;100.00;101355.16;4958659;28;20042;-73
2022/11/09 02:59:25;;;;;;;113.88;77.40;;;;;;;7.73;100.00;101347.84;4967234;28;20043;-73
2022/11/09 03:01:51;;;;;;;165.80;130.38;;;;;;;7.36;100.00;101339.00;4967220;28;20063;-73
2022/11/09 03:04:16;;;;;;;149.60;123.55;;;;;;;7.85;100.00;101351.63;4967674;28;20055;-73
2022/11/09 03:06:42;;;;;;;133.40;108.75;;;;;;;6.79;100.00;101202.53;4967833;28;20630;-73
2022/11/09 03:09:09;;;;;;;139.00;110.43;;;;;;;7.07;100.00;101223.34;4967403;28;20034;-73
2022/11/09 03:11:36;;;;;;;130.43;102.18;;;;;;;8.06;100.00;101370.47;4967472;28;20160;-73
2022/11/09 03:14:02;;;;;;;105.25;79.60;;;;;;;7.14;100.00;101217.47;4964015;28;20054;-74
2022/11/09 03:16:28;;;;;;;106.55;71.57;;;;;;;7.89;100.00;101333.47;4967569;28;20082;-73
2022/11/09 03:18:54;;;;;;;104.63;72.40;;;;;;;7.23;100.00;101211.56;4967753;28;20039;-73
2022/11/09 03:21:21;;;;;;;106.20;77.88;;;;;;;7.78;100.00;101330.56;4974794;28;20042;-73
2022/11/09 03:23:47;;;;;;;73.78;50.05;;;;;;;7.50;100.00;101342.00;4978654;28;20034;-73
2022/11/09 03:26:13;;;;;;;65.78;43.92;;;;;;;7.15;100.00;101351.44;4939858;28;20400;-74
2022/11/09 03:28:39;;;;;;;73.10;48.00;;;;;;;7.11;100.00;101340.00;4966861;28;20046;-75
2022/11/09 03:31:04;;;;;;;70.47;42.70;;;;;;;7.02;100.00;101325.81;4967116;28;20781;-72
2022/11/09 03:33:30;;;;;;;69.50;44.47;;;;;;;6.28;100.00;101219.31;4967478;28;20050;-73
2022/11/09 03:35:55;;;;;;;64.43;40.70;;;;;;;6.44;100.00;101226.78;4967711;28;20078;-73
2022/11/09 03:38:21;;;;;;;65.43;42.80;;;;;;;7.21;100.00;101372.50;4967510;28;20057;-72
2022/11/09 03:40:46;;;;;;;61.75;40.72;;;;;;;7.19;100.00;101376.78;4966578;28;20055;-74
2022/11/09 03:43:12;;;;;;;52.17;40.42;;;;;;;6.46;100.00;101250.25;4966627;28;20051;-72
2022/11/09 03:45:38;;;;;;;53.45;39.35;;;;;;;7.24;100.00;101364.75;4971503;28;20053;-75
2022/11/09 03:48:04;;;;;;;62.63;41.35;;;;;;;7.08;100.00;101344.28;4955971;28;20039;-74
2022/11/09 03:50:32;;;;;;;77.97;41.83;;;;;;;7.09;100.00;101357.34;4970889;28;20074;-73
2022/11/09 03:52:59;;;;;;;58.03;41.75;;;;;;;6.52;100.00;101266.09;4971654;28;20430;-74
2022/11/09 03:55:25;;;;;;;63.97;42.72;;;;;;;7.16;100.00;101374.06;4965635;28;20154;-73
2022/11/09 03:57:51;;;;;;;63.78;43.45;;;;;;;6.26;100.00;101234.91;4970003;28;20039;-74
2022/11/09 04:00:18;;;;;;;70.30;46.25;;;;;;;6.10;100.00;101236.16;4970587;28;20513;-74
2022/11/09 04:02:44;;;;;;;65.53;43.22;;;;;;;7.05;100.00;101365.06;4969908;28;20494;-74
2022/11/09 04:05:10;;;;;;;43.53;23.13;;;;;;;6.52;100.00;101264.38;4971088;28;20137;-74
2022/11/09 04:07:36;;;;;;;64.50;41.80;;;;;;;6.47;100.00;101285.94;4954392;28;20051;-73
2022/11/09 04:10:01;;;;;;;64.57;43.30;;;;;;;6.67;100.00;101342.19;4970876;28;20035;-73
2022/11/09 04:12:27;;;;;;;70.68;43.65;;;;;;;6.08;100.00;101261.25;4969764;28;20042;-73
2022/11/09 04:14:52;;;;;;;62.35;41.38;;;;;;;6.41;100.00;101272.69;4970778;28;20146;-73
2022/11/09 04:17:18;;;;;;;41.72;25.15;;;;;;;6.61;100.00;101323.75;4970818;28;20066;-73
2022/11/09 04:19:43;;;;;;;43.40;24.77;;;;;;;7.05;100.00;101381.59;4971026;28;20047;-73
2022/11/09 04:22:09;;;;;;;56.65;41.95;;;;;;;6.95;100.00;101383.06;4970812;28;20478;-74
2022/11/09 04:24:34;;;;;;;63.10;41.50;;;;;;;6.94;100.00;101396.91;4969170;28;20133;-75
2022/11/09 04:27:00;;;;;;;74.88;41.03;;;;;;;6.10;100.00;101257.00;4971234;28;20120;-73
2022/11/09 04:29:25;;;;;;;63.95;41.28;;;;;;;6.82;100.00;101372.19;4970471;28;20054;-74
2022/11/09 04:31:51;;;;;;;50.05;23.08;;;;;;;6.77;100.00;101385.09;4955884;28;20112;-74
2022/11/09 04:34:17;;;;;;;62.67;38.78;;;;;;;6.64;100.00;101355.13;4970567;28;20054;-75
2022/11/09 04:36:43;;;;;;;38.72;22.50;;;;;;;5.90;100.00;101242.44;4967741;28;21754;-75
2022/11/09 04:39:09;;;;;;;57.53;40.38;;;;;;;5.99;100.00;101234.91;4967013;28;20247;-74
2022/11/09 04:41:34;;;;;;;56.58;39.80;;;;;;;6.96;100.00;101410.91;4973717;28;20046;-74
2022/11/09 04:44:00;;;;;;;45.05;25.05;;;;;;;6.25;100.00;101272.25;4967611;28;20067;-73
2022/11/09 04:46:26;;;;;;;41.20;26.88;;;;;;;6.68;100.00;101400.44;4970119;28;20059;-74
2022/11/09 04:48:52;;;;;;;67.72;40.30;;;;;;;5.96;100.00;101278.22;4963659;28;20051;-74
2022/11/09 04:51:18;;;;;;;66.93;39.92;;;;;;;6.61;100.00;101391.53;4967544;28;20392;-74
2022/11/09 04:53:44;;;;;;;60.30;38.53;;;;;;;6.40;100.00;101363.06;4969628;28;20043;-74
2022/11/09 04:56:10;;;;;;;71.95;41.65;;;;;;;6.49;100.00;101375.50;4969986;28;20059;-74
2022/11/09 04:58:36;;;;;;;41.08;23.45;;;;;;;6.69;100.00;101405.69;4970282;28;20155;-74
2022/11/09 05:01:11;;;;;;;36.97;23.67;;;;;;;5.65;100.00;101230.31;4970736;28;20070;-75
2022/11/09 05:03:36;;;;;;;61.70;38.92;;;;;;;6.46;100.00;101381.53;4970422;28;20043;-75
2022/11/09 05:08:47;;;;;;;51.67;25.15;;;;;;;6.58;100.00;101408.78;4969466;28;20054;-73
2022/11/09 05:11:13;;;;;;;40.45;24.33;;;;;;;6.77;100.00;101403.34;4975875;28;20050;-74
2022/11/09 05:13:38;;;;;;;67.78;38.45;;;;;;;6.40;100.00;101308.31;4970077;28;20051;-74
2022/11/09 05:16:04;;;;;;;63.13;41.15;;;;;;;6.32;100.00;101278.50;4970334;28;20047;-73
2022/11/09 05:18:29;;;;;;;58.25;40.22;;;;;;;6.06;100.00;101275.06;4960463;28;20130;-74
2022/11/09 05:20:58;;;;;;;58.85;24.50;;;;;;;7.03;100.00;101429.38;4955487;28;20031;-73
2022/11/09 05:26:08;;;;;;;48.58;25.30;;;;;;;6.09;100.00;101309.94;4969983;28;20131;-73
2022/11/09 05:28:33;;;;;;;42.10;22.67;;;;;;;6.86;100.00;101437.56;4969650;28;20421;-76
2022/11/09 05:30:59;;;;;;;67.22;42.58;;;;;;;6.92;100.00;101439.47;4970181;28;20039;-73
2022/11/09 05:33:25;;;;;;;64.30;28.55;;;;;;;6.93;100.00;101422.94;4966376;28;20055;-73
2022/11/09 05:35:53;;;;;;;72.13;41.55;;;;;;;6.75;100.00;101458.06;4970107;28;20093;-74
2022/11/09 05:38:18;;;;;;;67.13;44.00;;;;;;;6.62;100.00;101447.19;4966542;28;20055;-74
2022/11/09 05:40:47;;;;;;;56.65;24.73;;;;;;;6.44;100.00;101411.88;4968535;28;20058;-74
2022/11/09 05:43:13;;;;;;;51.83;24.13;;;;;;;6.58;100.00;101451.44;4966228;28;20118;-75
2022/11/09 05:45:40;;;;;;;51.40;25.50;;;;;;;6.41;100.00;101437.81;4968870;28;20046;-73
2022/11/09 05:48:06;;;;;;;48.67;25.27;;;;;;;6.72;100.00;101454.50;4968101;28;20031;-74
2022/11/09 05:50:31;;;;;;;40.38;25.63;;;;;;;6.46;100.00;101458.81;4967036;28;20133;-75
2022/11/09 05:53:00;;;;;;;66.15;41.63;;;;;;;6.42;100.00;101464.78;4964363;28;20377;-76
2022/11/09 05:55:26;;;;;;;70.88;43.72;;;;;;;5.98;100.00;101344.28;4967325;28;20067;-74
2022/11/09 05:57:52;;;;;;;42.90;28.02;;;;;;;6.61;100.00;101481.94;4968656;28;20038;-74
2022/11/09 06:00:18;;;;;;;69.85;45.67;;;;;;;6.48;100.00;101476.28;4966716;28;20065;-74
2022/11/09 06:02:43;;;;;;;64.80;27.65;;;;;;;5.94;100.00;101358.91;4968436;28;20035;-74
2022/11/09 06:05:09;;;;;;;44.05;26.58;;;;;;;6.62;100.00;101481.09;4967535;28;20558;-75
2022/11/09 06:07:34;;;;;;;48.67;24.20;;;;;;;5.69;100.00;101324.19;4967070;28;20101;-74
2022/11/09 06:10:00;;;;;;;76.72;42.90;;;;;;;5.53;100.00;101316.69;4967786;28;20035;-73
2022/11/09 06:12:27;;;;;;;65.90;45.58;;;;;;;6.26;100.00;101481.63;4966863;28;20039;-75
2022/11/09 06:14:52;;;;;;;45.47;23.85;;;;;;;5.39;100.00;101328.34;4968864;28;20123;-74
2022/11/09 06:17:18;;;;;;;50.42;25.17;;;;;;;6.06;100.00;101465.25;4967505;28;20098;-74
2022/11/09 06:19:43;;;;;;;36.92;24.20;;;;;;;6.46;100.00;101475.38;4968085;28;20097;-72
2022/11/09 06:22:09;;;;;;;58.45;26.50;;;;;;;6.46;100.00;101482.28;4966818;28;20388;-73
2022/11/09 06:24:35;;;;;;;46.92;25.65;;;;;;;6.41;100.00;101476.91;4975748;28;20805;-75
2022/11/09 06:27:01;;;;;;;73.47;44.30;;;;;;;5.76;100.00;101385.19;4974945;28;20050;-75
2022/11/09 06:29:26;;;;;;;49.90;28.17;;;;;;;6.38;100.00;101491.56;4972472;28;20043;-76
2022/11/09 06:31:52;;;;;;;69.60;28.52;;;;;;;5.63;100.00;101333.50;4966931;28;20137;-75
2022/11/09 06:34:17;;;;;;;48.38;27.08;;;;;;;6.26;100.00;101458.16;4950229;28;20129;-74
2022/11/09 06:36:45;;;;;;;46.30;27.23;;;;;;;6.45;100.00;101488.34;4963068;28;20442;-72
2022/11/09 06:39:11;;;;;;;41.40;26.80;;;;;;;5.51;100.00;101328.78;4964708;28;20038;-73
2022/11/09 06:41:37;;;;;;;53.60;29.23;;;;;;;6.46;100.00;101449.31;4964078;28;20058;-73
2022/11/09 06:44:04;;;;;;;78.70;28.48;;;;;;;6.27;100.00;101420.81;4957697;28;20071;-74
2022/11/09 06:46:31;;;;;;;48.33;24.98;;;;;;;6.29;100.00;101458.25;4956976;28;20066;-75
2022/11/09 06:48:56;;;;;;;71.22;26.70;;;;;;;5.82;100.00;101343.72;4962444;28;20065;-76
2022/11/09 06:51:22;;;;;;;46.97;29.67;;;;;;;6.22;100.00;101404.16;4960034;28;20034;-76
2022/11/09 06:53:48;;;;;;;52.38;28.38;;;;;;;6.47;100.00;101440.63;4964392;28;20047;-76
2022/11/09 06:56:13;;;;;;;51.47;27.27;;;;;;;6.05;100.00;101343.66;4965992;28;20121;-76
2022/11/09 06:58:39;;;;;;;49.58;27.75;;;;;;;7.14;100.00;101496.72;4964397;28;20486;-76
2022/11/09 07:01:09;;;;;;;46.00;28.40;;;;;;;6.43;100.00;101384.00;4966213;28;20564;-78
2022/11/09 07:03:37;;;;;;;59.92;31.88;;;;;;;6.96;100.00;101483.97;4975797;28;20058;-76
2022/11/09 07:06:09;;;;;;;66.22;32.33;;;;;;;5.78;100.00;101294.97;4967759;28;20073;-75
2022/11/09 07:08:36;;;;;;;56.57;29.63;;;;;;;6.78;100.00;101461.63;4966959;28;20051;-78
2022/11/09 07:11:10;;;;;;;80.63;48.15;;;;;;;6.35;100.00;101367.25;4967286;28;20125;-78
2022/11/09 07:13:37;;;;;;;60.35;30.85;;;;;;;6.36;100.00;101334.25;4968326;28;20055;-76
2022/11/09 07:16:03;;;;;;;52.10;32.28;;;;;;;7.00;100.00;101452.75;4965553;28;20054;-77
2022/11/09 07:18:30;;;;;;;66.03;45.45;;;;;;;7.28;100.00;101483.19;4948641;28;20117;-76
2022/11/09 07:20:55;;;;;;;72.57;42.47;;;;;;;6.92;100.00;101487.31;4970340;28;20229;-75
2022/11/09 07:23:21;;;;;;;39.97;26.42;;;;;;;6.78;100.00;101445.97;4959002;28;20047;-78
2022/11/09 07:25:46;;;;;;;37.08;24.92;;;;;;;6.98;100.00;101458.81;4949465;28;20046;-76
2022/11/09 07:28:12;;;;;;;76.22;40.35;;;;;;;7.03;100.00;101492.00;4966973;28;20601;-75
2022/11/09 07:30:37;;;;;;;44.53;26.17;;;;;;;7.38;100.00;101404.31;4966379;28;20054;-75
2022/11/09 07:33:11;;;;;;;62.83;38.95;;;;;;;7.66;100.00;101373.75;4966940;28;20474;-76
2022/11/09 07:35:37;;;;;;;51.97;28.90;;;;;;;8.85;100.00;101347.09;4949964;28;20108;-76
2022/11/09 07:38:02;;;;;;;52.25;27.88;;;;;;;8.71;100.00;101506.41;4968053;28;20042;-75
2022/11/09 07:40:29;;;;;;;66.68;42.33;;;;;;;7.87;100.00;101485.81;4967116;28;20043;-75
2022/11/09 07:43:02;;;;;;;66.20;40.42;;;;;;;7.45;100.00;101366.22;4963424;28;20852;-77
2022/11/09 07:45:29;;;;;;;58.55;38.28;;;;;;;8.00;100.00;101498.38;4967576;28;20043;-75
2022/11/09 07:47:59;;;;;;;60.70;44.90;;;;;;;7.02;100.00;101355.38;4969779;28;20101;-74
2022/11/09 07:50:26;;;;;;;69.28;44.97;;;;;;;8.22;100.00;101487.66;4966205;28;20094;-75
2022/11/09 07:52:54;;;;;;;59.00;40.83;;;;;;;7.87;100.00;101499.75;4952925;28;20050;-76
2022/11/09 07:55:20;;;;;;;58.50;37.83;;;;;;;7.21;100.00;101471.69;4963530;28;20941;-76
2022/11/09 07:57:46;;;;;;;64.50;43.03;;;;;;;6.80;100.00;101309.53;4964445;28;20126;-75
2022/11/09 08:00:12;;;;;;;59.58;39.08;;;;;;;8.16;100.00;101377.69;4967210;28;20053;-75
2022/11/09 08:02:37;;;;;;;60.78;39.78;;;;;;;6.72;100.00;101251.94;4968196;28;20040;-74
2022/11/09 08:05:03;;;;;;;78.93;40.10;;;;;;;8.11;100.00;101496.94;4965500;28;20055;-77
2022/11/09 08:07:29;;;;;;;65.60;37.25;;;;;;;8.16;100.00;101470.91;4967504;28;20105;-72
2022/11/09 08:09:58;;;;;;;80.72;52.28;;;;;;;8.83;100.00;101479.66;4948652;28;20591;-76
2022/11/09 08:12:24;;;;;;;70.03;40.30;;;;;;;7.47;100.00;101383.69;4964214;28;20035;-76
2022/11/09 08:14:49;;;;;;;67.05;42.42;;;;;;;7.63;100.00;101382.38;4968258;28;20165;-74
2022/11/09 08:17:15;;;;;;;64.28;40.45;;;;;;;8.22;100.00;101500.72;4965132;28;20046;-76
2022/11/09 08:19:40;;;;;;;55.92;38.58;;;;;;;7.96;100.00;101493.88;4971945;28;20046;-76
2022/11/09 08:22:05;;;;;;;80.20;64.43;;;;;;;8.96;100.00;101479.06;4965482;28;20051;-75
2022/11/09 08:24:31;;;;;;;80.35;50.97;;;;;;;8.64;100.00;101480.94;4964331;28;20514;-75
2022/11/09 08:26:56;;;;;;;55.42;37.75;;;;;;;8.39;100.00;101490.72;4966139;28;20026;-75
2022/11/09 08:29:22;;;;;;;54.85;40.38;;;;;;;7.58;100.00;101360.47;4967734;28;20486;-75
2022/11/09 08:31:49;;;;;;;65.68;38.53;;;;;;;8.21;100.00;101388.25;4969573;28;20506;-75
2022/11/09 08:34:15;;;;;;;55.72;40.75;;;;;;;8.61;100.00;101486.06;4969581;28;20054;-75
2022/11/09 08:36:40;;;;;;;80.90;59.67;;;;;;;8.44;100.00;101347.03;4970009;28;20071;-76
2022/11/09 08:39:06;;;;;;;57.40;37.20;;;;;;;8.82;100.00;101473.50;4967349;28;20787;-75
2022/11/09 08:41:32;;;;;;;55.33;36.13;;;;;;;8.25;100.00;101353.50;4966711;28;20391;-74
2022/11/09 08:43:58;;;;;;;53.70;38.13;;;;;;;9.37;100.00;101489.63;4961332;28;20058;-74
2022/11/09 08:46:24;;;;;;;72.20;40.63;;;;;;;9.24;100.00;101485.84;4967940;28;20055;-76
2022/11/09 08:48:50;;;;;;;51.30;36.72;;;;;;;9.52;100.00;101487.34;4968712;28;20093;-75
2022/11/09 08:51:19;;;;;;;60.92;42.35;;;;;;;9.26;100.00;101457.97;4946995;28;20150;-76
2022/11/09 08:53:44;;;;;;;66.35;41.78;;;;;;;9.17;100.00;101462.09;4964522;28;20035;-76
2022/11/09 08:56:11;;;;;;;61.35;39.08;;;;;;;9.48;100.00;101464.56;4967747;28;20042;-81
2022/11/09 08:58:37;;;;;;;57.78;35.08;;;;;;;8.81;100.00;101342.66;4956134;28;20051;-76
2022/11/09 09:01:07;;;;;;;70.05;38.20;;;;;;;9.77;100.00;101482.63;4970011;28;20110;-73
2022/11/09 09:03:33;;;;;;;52.17;36.60;;;;;;;9.02;100.00;101340.50;4969050;28;20548;-78
2022/11/09 09:06:05;;;;;;;51.60;37.05;;;;;;;9.28;99.51;101346.25;4968578;28;20167;-76
2022/11/09 09:08:31;;;;;;;60.08;36.42;;;;;;;10.12;99.39;101478.06;4958306;28;20047;-76
2022/11/09 09:11:01;;;;;;;43.63;30.90;;;;;;;10.05;99.55;101470.94;4968510;28;20050;-75
2022/11/09 09:13:27;;;;;;;42.53;30.42;;;;;;;9.38;99.20;101363.03;4969902;28;20508;-77
2022/11/09 09:15:53;;;;;;;46.63;33.78;;;;;;;9.49;98.90;101358.91;4958152;28;20087;-73
2022/11/09 09:18:18;;;;;;;47.92;29.92;;;;;;;9.68;99.71;101409.06;4969070;28;20567;-72
2022/11/09 09:20:44;;;;;;;46.00;32.83;;;;;;;9.30;99.01;101323.63;4975775;28;20035;-73
2022/11/09 09:23:11;;;;;;;56.83;32.88;;;;;;;10.33;98.70;101476.75;4971548;28;20399;-73
2022/11/09 09:25:36;;;;;;;51.38;33.08;;;;;;;10.40;97.70;101457.63;4970609;28;20070;-73
2022/11/09 09:28:02;;;;;;;50.83;34.65;;;;;;;10.47;97.12;101451.63;4969999;28;20046;-74
2022/11/09 09:30:27;;;;;;;56.42;34.60;;;;;;;10.77;96.15;101459.13;4968756;28;20070;-75
2022/11/09 09:32:58;;;;;;;42.08;31.38;;;;;;;10.65;95.85;101445.81;4959842;28;20553;-70
2022/11/09 09:35:23;;;;;;;50.17;32.25;;;;;;;10.08;95.40;101328.50;4969060;28;20102;-70
2022/11/09 09:37:49;;;;;;;42.90;29.60;;;;;;;10.85;95.52;101453.13;4969553;28;20050;-71
2022/11/09 09:40:41;;;;;;;44.47;31.90;;;;;;;10.15;95.10;101330.38;4966689;28;20117;-70
2022/11/09 09:43:16;;;;;;;43.58;30.98;;;;;;;10.99;94.42;101454.22;4966513;28;20054;-71
2022/11/09 09:45:50;;;;;;;48.42;32.20;;;;;;;10.31;94.17;101324.56;4968462;28;20054;-70
2022/11/09 09:48:25;;;;;;;50.25;35.03;;;;;;;11.07;93.96;101449.94;4966009;28;20039;-70
2022/11/09 09:51:00;;;;;;;47.33;36.53;;;;;;;11.04;93.33;101434.16;4969282;28;20034;-71
2022/11/09 09:53:38;;;;;;;64.07;33.67;;;;;;;11.25;92.67;101430.06;4967576;28;20059;-72
2022/11/09 09:56:18;;;;;;;48.13;33.65;;;;;;;11.31;92.07;101446.81;4969339;28;20114;-71
2022/11/09 09:58:50;;;;;;;58.20;34.08;;;;;;;10.61;91.90;101302.28;4968897;28;20061;-70
2022/11/09 10:01:19;;;;;;;46.17;31.45;;;;;;;10.94;91.37;101337.72;4983271;28;20046;-70
2022/11/09 10:03:49;;;;;;;47.70;31.45;;;;;;;11.64;91.08;101440.22;4967001;28;20047;-70
2022/11/09 10:06:23;;;;;;;43.03;29.58;;;;;;;11.59;90.99;101436.66;4968905;28;20117;-71
2022/11/09 10:09:08;;;;;;;52.05;31.85;;;;;;;11.66;90.59;101406.94;4967990;28;20050;-71
2022/11/09 10:12:08;;;;;;;44.47;31.80;;;;;;;11.91;89.85;101429.16;4960595;28;20051;-71
2022/11/09 10:15:03;;;;;;;52.28;35.00;;;;;;;12.02;89.43;101434.53;4965521;28;20043;-70
2022/11/09 10:17:31;;;;;;;45.22;30.17;;;;;;;12.27;88.84;101430.41;4972127;28;20046;-75
2022/11/09 10:20:26;;;;;;;50.25;29.38;;;;;;;12.40;88.27;101429.63;4968305;28;20059;-75
2022/11/09 10:23:22;;;;;;;55.38;29.33;;;;;;;11.88;87.93;101339.72;4962575;28;20582;-73
2022/11/09 10:25:53;;;;;;;60.03;31.98;;;;;;;11.53;87.04;101266.59;4940881;28;20069;-72
2022/11/09 10:28:26;;;;;;;40.63;30.98;;;;;;;12.27;87.51;101413.72;4957129;28;20031;-75
2022/11/09 10:30:51;;;;;;;49.17;29.77;;;;;;;11.94;87.21;101338.88;4968825;28;20917;-75
2022/11/09 10:33:20;;;;;;;52.90;28.90;;;;;;;12.57;86.86;101408.75;4967933;28;20054;-75
2022/11/09 10:35:59;;;;;;;54.78;28.67;;;;;;;12.29;86.08;101347.09;4935464;28;20042;-75
2022/11/09 10:38:31;;;;;;;47.15;29.80;;;;;;;12.75;85.47;101386.03;4967507;28;20042;-76
2022/11/09 10:41:10;;;;;;;55.13;30.02;;;;;;;12.79;85.02;101380.78;4967595;28;20498;-75
2022/11/09 10:43:37;;;;;;;46.65;27.95;;;;;;;13.15;84.50;101391.53;4953232;28;20105;-75
2022/11/09 10:46:06;;;;;;;56.15;28.15;;;;;;;13.18;83.70;101404.72;4967966;28;20050;-75
2022/11/09 10:48:35;;;;;;;41.10;28.60;;;;;;;12.43;82.73;101224.38;4968337;28;20055;-77
2022/11/09 10:51:01;;;;;;;69.53;27.27;;;;;;;13.44;82.75;101403.13;4968485;28;20092;-76
2022/11/09 10:53:28;;;;;;;50.47;26.17;;;;;;;13.43;82.50;101398.72;4957112;28;20081;-74
2022/11/09 10:56:12;;;;;;;35.65;26.85;;;;;;;13.63;82.00;101390.91;4968047;28;20050;-76
2022/11/09 10:58:46;;;;;;;43.17;26.55;;;;;;;13.13;80.78;101269.41;4978380;28;20398;-78
2022/11/09 11:01:13;;;;;;;45.85;28.75;;;;;;;13.80;80.67;101397.97;4967909;28;20125;-77
2022/11/09 11:03:40;;;;;;;38.83;27.20;;;;;;;12.86;81.18;101250.88;4966647;28;20050;-78
2022/11/09 11:06:30;;;;;;;39.90;29.70;;;;;;;13.67;81.34;101389.13;4968263;28;20046;-75
2022/11/09 11:09:04;;;;;;;51.55;30.35;;;;;;;13.59;81.88;101385.59;4950222;28;20204;-75
2022/11/09 11:11:32;;;;;;;37.45;29.25;;;;;;;13.67;81.16;101378.59;4944988;28;20059;-76
2022/11/09 11:14:34;;;;;;;48.97;28.58;;;;;;;14.13;79.20;101371.63;4966281;28;20065;-77
2022/11/09 11:17:00;;;;;;;45.30;26.75;;;;;;;14.15;78.93;101367.25;4968408;28;20051;-77
2022/11/09 11:19:40;;;;;;;44.35;29.17;;;;;;;13.93;79.70;101376.03;4964537;28;20054;-77